Kowanda, Nebraska
Current Conditions -  °F | °C
As of 1:53 PM on Sunday 23 Nov 2014 (Local Time) from KAIA Reporting Station
Clear Clear  
Wind Chill: 31°   Ceiling: Unl
Heat Index: 42°   Visibility: 10mi
Dew Point: 14°   Wind: 29mph
Humidity: 32%   Direction: 330°NNW
Pressure: 29.72"   Gusts: 48mph
Location:  41.7534°N, 102.325°W
Report Text: KAIA 232053Z AUTO 33025G42KT 10SM CLR 06/M10 A2972 RMK AO2 PK WND 32042/2044 SLP066 T00561100 56012
Loading
Personal Weather Stations






























Interactive Weather Map New forecast layout! Learn more

10-Day Weather Forecast

Advertisements
Track Severe Weather on mobile